Time;durP1;ratioP1;P1;durP2;ratioP2;P2;SDS_P1;SDS_P2;PMS_P1;PMS_P2;Temp;Humidity;BMP_temperature;BMP_pressure;BME280_temperature;BME280_humidity;BME280_pressure;Samples;Min_cycle;Max_cycle;Signal;HPM_P1;HPM_P2
2023/09/12 00:00:03;;;;;;;16.08;8.98;;;;;;;;;;10397328;28;20030;-49
2023/09/12 00:05:04;;;;;;;23.90;9.13;;;;;;;;;;10409400;28;20077;-49
2023/09/12 00:10:05;;;;;;;17.90;9.38;;;;;;;;;;10406528;28;20029;-50
2023/09/12 00:15:06;;;;;;;13.80;9.25;;;;;;;;;;10408055;28;20065;-49
2023/09/12 00:20:08;;;;;;;17.25;10.07;;;;;;;;;;10406659;28;20172;-49
2023/09/12 00:25:08;;;;;;;19.88;9.93;;;;;;;;;;10405652;28;20055;-48
2023/09/12 00:30:10;;;;;;;20.17;9.57;;;;;;;;;;10407288;28;20022;-58
2023/09/12 00:35:10;;;;;;;17.65;9.55;;;;;;;;;;10393405;28;20033;-58
2023/09/12 00:40:11;;;;;;;28.05;10.80;;;;;;;;;;10395465;28;20029;-58
2023/09/12 00:45:11;;;;;;;17.75;10.40;;;;;;;;;;10405177;28;20045;-60
2023/09/12 00:50:14;;;;;;;17.83;10.75;;;;;;;;;;10394598;28;20017;-57
2023/09/12 00:55:15;;;;;;;16.38;10.77;;;;;;;;;;10401903;28;20033;-58
2023/09/12 01:00:16;;;;;;;18.95;10.27;;;;;;;;;;10394087;28;20028;-58
2023/09/12 01:05:16;;;;;;;25.15;10.63;;;;;;;;;;10404332;28;20042;-48
2023/09/12 01:10:17;;;;;;;18.92;10.10;;;;;;;;;;10391273;28;20040;-49
2023/09/12 01:15:18;;;;;;;20.67;9.25;;;;;;;;;;10405793;28;20033;-51
2023/09/12 01:20:32;;;;;;;12.65;9.05;;;;;;;;;;10394304;28;20409;-51
2023/09/12 01:26:17;;;;;;;14.18;8.65;;;;;;;;;;10405213;28;20090;-51
2023/09/12 01:31:17;;;;;;;15.48;8.27;;;;;;;;;;10395723;28;20477;-51
2023/09/12 01:36:18;;;;;;;18.75;9.07;;;;;;;;;;10401066;28;20029;-53
2023/09/12 01:41:19;;;;;;;11.63;7.75;;;;;;;;;;10393034;28;20052;-49
2023/09/12 01:46:21;;;;;;;11.63;7.45;;;;;;;;;;10392417;28;20297;-54
2023/09/12 01:51:23;;;;;;;10.20;6.40;;;;;;;;;;10399487;28;20484;-61
2023/09/12 01:56:25;;;;;;;7.53;5.80;;;;;;;;;;10385354;28;20026;-48
2023/09/12 02:01:27;;;;;;;8.23;5.45;;;;;;;;;;10385679;28;20037;-59
2023/09/12 02:06:27;;;;;;;6.47;5.28;;;;;;;;;;10396418;28;20037;-59
2023/09/12 02:11:28;;;;;;;10.85;5.43;;;;;;;;;;10411048;28;20026;-61
2023/09/12 02:16:31;;;;;;;9.10;5.68;;;;;;;;;;10405021;28;20737;-61
2023/09/12 02:21:32;;;;;;;8.80;5.40;;;;;;;;;;10393353;28;20030;-61
2023/09/12 02:26:35;;;;;;;9.65;5.43;;;;;;;;;;10405334;28;20100;-60
2023/09/12 02:31:36;;;;;;;7.75;5.35;;;;;;;;;;10409025;28;20448;-49
2023/09/12 02:36:37;;;;;;;8.52;5.13;;;;;;;;;;10406425;28;20033;-48
2023/09/12 02:41:37;;;;;;;9.43;5.57;;;;;;;;;;10411000;28;20040;-50
2023/09/12 02:46:38;;;;;;;9.60;5.57;;;;;;;;;;10395804;28;20041;-48
2023/09/12 02:51:39;;;;;;;8.05;5.35;;;;;;;;;;10409582;28;20083;-48
2023/09/12 02:56:40;;;;;;;9.35;5.70;;;;;;;;;;10400425;28;20025;-47
2023/09/12 03:01:40;;;;;;;10.05;5.65;;;;;;;;;;10406817;28;20038;-48
2023/09/12 03:06:41;;;;;;;8.18;5.28;;;;;;;;;;10395773;28;20033;-48
2023/09/12 03:11:41;;;;;;;6.75;5.43;;;;;;;;;;10407959;28;20037;-48
2023/09/12 03:16:42;;;;;;;7.32;5.00;;;;;;;;;;10384026;28;20025;-49
2023/09/12 03:21:42;;;;;;;6.80;4.97;;;;;;;;;;10383138;28;20030;-48
2023/09/12 03:26:43;;;;;;;7.35;5.13;;;;;;;;;;10374058;28;20029;-48
2023/09/12 03:31:44;;;;;;;6.30;5.22;;;;;;;;;;10390058;28;20028;-52
2023/09/12 03:36:44;;;;;;;5.70;4.90;;;;;;;;;;10394608;28;20077;-50
2023/09/12 03:41:45;;;;;;;6.00;5.15;;;;;;;;;;10387478;28;20028;-48
2023/09/12 03:46:45;;;;;;;5.13;4.40;;;;;;;;;;10383121;28;20054;-49
2023/09/12 03:51:46;;;;;;;6.97;4.70;;;;;;;;;;10373953;28;20033;-49
2023/09/12 03:56:46;;;;;;;6.47;5.18;;;;;;;;;;10397250;28;20416;-50
2023/09/12 04:01:47;;;;;;;6.35;4.95;;;;;;;;;;10393780;28;20033;-48
2023/09/12 04:06:48;;;;;;;4.90;4.40;;;;;;;;;;10372459;28;20041;-48
2023/09/12 04:11:48;;;;;;;7.00;5.38;;;;;;;;;;10384474;28;20497;-48
2023/09/12 04:16:49;;;;;;;5.30;4.75;;;;;;;;;;10383053;28;20025;-49
2023/09/12 04:21:50;;;;;;;5.93;4.70;;;;;;;;;;10406208;28;20037;-48
2023/09/12 04:26:50;;;;;;;8.35;5.25;;;;;;;;;;10375911;28;20241;-50
2023/09/12 04:31:52;;;;;;;8.02;4.75;;;;;;;;;;10375341;28;20092;-48
2023/09/12 04:36:53;;;;;;;7.82;4.97;;;;;;;;;;10389752;28;20032;-48
2023/09/12 04:41:54;;;;;;;7.72;5.03;;;;;;;;;;10398421;28;20028;-57
2023/09/12 04:46:54;;;;;;;7.07;5.35;;;;;;;;;;10388023;28;20524;-58
2023/09/12 04:51:55;;;;;;;5.75;4.18;;;;;;;;;;10372787;28;20041;-50
2023/09/12 04:56:55;;;;;;;7.20;4.88;;;;;;;;;;10393396;28;20472;-47
2023/09/12 05:01:56;;;;;;;8.13;5.07;;;;;;;;;;10396410;28;20029;-54
2023/09/12 05:06:57;;;;;;;6.60;4.78;;;;;;;;;;10380558;28;20045;-48
2023/09/12 05:11:57;;;;;;;5.65;4.53;;;;;;;;;;10370964;28;20034;-47
2023/09/12 05:16:58;;;;;;;5.53;4.85;;;;;;;;;;10394371;28;20029;-51
2023/09/12 05:21:58;;;;;;;6.72;5.10;;;;;;;;;;10407298;28;20017;-48
2023/09/12 05:26:59;;;;;;;6.93;4.88;;;;;;;;;;10400134;28;20034;-48
2023/09/12 05:31:59;;;;;;;5.95;5.18;;;;;;;;;;10386682;28;20396;-50
2023/09/12 05:37:00;;;;;;;11.45;4.90;;;;;;;;;;10373876;28;20029;-49
2023/09/12 05:42:01;;;;;;;6.07;5.00;;;;;;;;;;10403968;28;20033;-48
2023/09/12 05:47:01;;;;;;;6.57;4.82;;;;;;;;;;10397886;28;20033;-54
2023/09/12 05:52:03;;;;;;;5.15;4.40;;;;;;;;;;10398672;28;20042;-47
2023/09/12 05:57:04;;;;;;;6.40;4.70;;;;;;;;;;10405130;28;20244;-48
2023/09/12 06:02:06;;;;;;;5.97;4.82;;;;;;;;;;10404643;28;20473;-47
2023/09/12 06:07:06;;;;;;;10.38;5.57;;;;;;;;;;10384736;28;20025;-47
2023/09/12 06:12:07;;;;;;;13.60;5.70;;;;;;;;;;10379902;28;20037;-49
2023/09/12 06:17:08;;;;;;;14.82;5.95;;;;;;;;;;10378459;28;20061;-48
2023/09/12 06:22:08;;;;;;;12.68;5.95;;;;;;;;;;10398752;28;20514;-48
2023/09/12 06:27:12;;;;;;;18.38;5.80;;;;;;;;;;10390410;28;20033;-48
2023/09/12 06:32:12;;;;;;;10.88;5.90;;;;;;;;;;10400157;28;20057;-49
2023/09/12 06:37:13;;;;;;;13.73;6.25;;;;;;;;;;10379616;28;20033;-48
2023/09/12 06:42:14;;;;;;;11.95;5.90;;;;;;;;;;10391847;28;20079;-48
2023/09/12 06:47:14;;;;;;;14.05;6.07;;;;;;;;;;10375424;28;20042;-56
2023/09/12 06:52:15;;;;;;;10.55;5.25;;;;;;;;;;10387692;28;20096;-49
2023/09/12 06:57:16;;;;;;;9.43;5.57;;;;;;;;;;10394529;28;20029;-48
2023/09/12 07:02:18;;;;;;;11.02;5.28;;;;;;;;;;10393522;28;20029;-49
2023/09/12 07:07:20;;;;;;;11.05;5.47;;;;;;;;;;10396005;28;20036;-49
2023/09/12 07:12:21;;;;;;;12.80;5.68;;;;;;;;;;10378333;28;20030;-48
2023/09/12 07:17:21;;;;;;;12.30;5.40;;;;;;;;;;10387214;28;20045;-48
2023/09/12 07:22:22;;;;;;;8.05;5.40;;;;;;;;;;10380313;28;20021;-55
2023/09/12 07:27:23;;;;;;;7.15;5.07;;;;;;;;;;10398550;28;20108;-53
2023/09/12 07:32:24;;;;;;;8.65;5.95;;;;;;;;;;10387760;28;20034;-57
2023/09/12 07:37:24;;;;;;;8.50;5.07;;;;;;;;;;10380919;28;20112;-55
2023/09/12 07:42:25;;;;;;;8.45;5.18;;;;;;;;;;10398235;28;20025;-48
2023/09/12 07:47:26;;;;;;;7.00;5.22;;;;;;;;;;10379298;28;20506;-48
2023/09/12 07:52:27;;;;;;;8.02;5.63;;;;;;;;;;10370454;28;20041;-48
2023/09/12 07:57:29;;;;;;;5.45;4.32;;;;;;;;;;10388393;28;20029;-48
2023/09/12 08:02:29;;;;;;;8.60;5.70;;;;;;;;;;10383254;28;20116;-52
2023/09/12 08:07:30;;;;;;;9.40;5.38;;;;;;;;;;10407737;28;20033;-54
2023/09/12 08:12:30;;;;;;;6.50;4.80;;;;;;;;;;10393998;28;20034;-53
2023/09/12 08:17:32;;;;;;;9.00;5.10;;;;;;;;;;10383792;28;20036;-49
2023/09/12 08:22:32;;;;;;;6.00;4.72;;;;;;;;;;10371538;28;20029;-53
2023/09/12 08:27:33;;;;;;;7.93;5.25;;;;;;;;;;10395955;28;20420;-56
2023/09/12 08:32:33;;;;;;;6.60;4.32;;;;;;;;;;10395881;28;20084;-49
2023/09/12 08:37:34;;;;;;;6.88;5.05;;;;;;;;;;10395783;28;20028;-48
2023/09/12 08:42:45;;;;;;;7.60;5.30;;;;;;;;;;10392887;28;20026;-48
2023/09/12 08:47:51;;;;;;;7.97;4.85;;;;;;;;;;10398088;28;20050;-48
2023/09/12 08:52:52;;;;;;;7.05;4.38;;;;;;;;;;10392569;28;20045;-52
2023/09/12 08:57:55;;;;;;;8.15;5.38;;;;;;;;;;10381959;28;20033;-58
2023/09/12 09:02:56;;;;;;;5.63;4.40;;;;;;;;;;10377405;28;20021;-59
2023/09/12 09:07:58;;;;;;;8.55;4.53;;;;;;;;;;10372667;28;20033;-60
2023/09/12 09:12:58;;;;;;;5.60;4.55;;;;;;;;;;10377673;28;20373;-58
2023/09/12 09:18:03;;;;;;;5.70;4.65;;;;;;;;;;10393311;28;20029;-60
2023/09/12 09:23:08;;;;;;;6.25;4.47;;;;;;;;;;10382280;28;20028;-60
2023/09/12 09:28:20;;;;;;;7.45;4.95;;;;;;;;;;10379161;28;20477;-55
2023/09/12 09:33:22;;;;;;;8.63;4.80;;;;;;;;;;10382482;28;20413;-48
2023/09/12 09:38:23;;;;;;;7.72;4.80;;;;;;;;;;10380467;28;20080;-49
2023/09/12 09:43:24;;;;;;;5.60;4.78;;;;;;;;;;10386603;28;20493;-48
2023/09/12 09:48:30;;;;;;;6.90;4.45;;;;;;;;;;10404974;28;20378;-56
2023/09/12 09:53:37;;;;;;;7.57;4.57;;;;;;;;;;10379114;28;20498;-48
2023/09/12 09:58:48;;;;;;;4.97;4.45;;;;;;;;;;10381826;28;20033;-50
2023/09/12 10:03:50;;;;;;;8.57;4.60;;;;;;;;;;10390101;28;20029;-49
2023/09/12 10:08:53;;;;;;;6.57;4.80;;;;;;;;;;10382737;28;20049;-48
2023/09/12 10:13:56;;;;;;;5.38;4.57;;;;;;;;;;10391396;28;20045;-48
2023/09/12 10:19:11;;;;;;;5.88;4.57;;;;;;;;;;10367548;28;20057;-48
2023/09/12 10:24:12;;;;;;;5.32;4.65;;;;;;;;;;10372948;28;20048;-48
2023/09/12 10:29:15;;;;;;;5.22;4.70;;;;;;;;;;10379372;28;20034;-48
2023/09/12 10:34:16;;;;;;;8.32;4.95;;;;;;;;;;10388467;28;20052;-48
2023/09/12 10:39:19;;;;;;;6.90;4.65;;;;;;;;;;10376100;28;20044;-48
2023/09/12 10:44:21;;;;;;;7.50;4.90;;;;;;;;;;10387078;28;20046;-48
2023/09/12 10:49:22;;;;;;;5.97;4.80;;;;;;;;;;10384150;28;20107;-48
2023/09/12 10:54:39;;;;;;;6.63;4.80;;;;;;;;;;10390238;28;20040;-48
2023/09/12 10:59:58;;;;;;;5.57;4.78;;;;;;;;;;10398478;28;20061;-49
2023/09/12 11:05:04;;;;;;;6.03;4.70;;;;;;;;;;10411256;28;20029;-48
2023/09/12 11:10:18;;;;;;;7.07;5.15;;;;;;;;;;10386063;28;20477;-49
2023/09/12 11:15:23;;;;;;;4.85;4.35;;;;;;;;;;10373935;28;20026;-57
2023/09/12 11:20:24;;;;;;;6.80;4.97;;;;;;;;;;10374221;28;20058;-59
2023/09/12 11:25:26;;;;;;;6.40;4.80;;;;;;;;;;10385626;28;20028;-51
2023/09/12 11:30:30;;;;;;;9.15;5.07;;;;;;;;;;10387940;28;20037;-52
2023/09/12 11:35:38;;;;;;;6.25;4.57;;;;;;;;;;10391995;28;20120;-48
2023/09/12 11:40:38;;;;;;;5.67;5.07;;;;;;;;;;10389932;28;20032;-55
2023/09/12 11:45:43;;;;;;;5.63;4.70;;;;;;;;;;10384097;28;20823;-58
2023/09/12 11:50:53;;;;;;;6.70;4.93;;;;;;;;;;10385108;28;20022;-52
2023/09/12 11:55:57;;;;;;;5.90;4.75;;;;;;;;;;10387281;28;20485;-52
2023/09/12 12:00:58;;;;;;;8.00;5.15;;;;;;;;;;10384095;28;20018;-48
2023/09/12 12:05:59;;;;;;;7.50;5.72;;;;;;;;;;10408082;28;20477;-50
2023/09/12 12:11:00;;;;;;;10.57;6.18;;;;;;;;;;10386712;28;20417;-49
2023/09/12 12:16:13;;;;;;;9.02;6.50;;;;;;;;;;10403718;28;20385;-52
2023/09/12 12:21:14;;;;;;;9.85;6.80;;;;;;;;;;10394285;28;20107;-48
2023/09/12 12:26:15;;;;;;;9.93;7.55;;;;;;;;;;10374795;28;20086;-49
2023/09/12 12:31:15;;;;;;;11.65;7.72;;;;;;;;;;10371821;28;20026;-52
2023/09/12 12:36:16;;;;;;;8.65;6.90;;;;;;;;;;10402992;28;20037;-48
2023/09/12 12:41:24;;;;;;;10.80;7.82;;;;;;;;;;10382549;28;20025;-53
2023/09/12 12:46:24;;;;;;;9.45;7.65;;;;;;;;;;10383182;28;20052;-48
2023/09/12 12:51:26;;;;;;;11.05;7.68;;;;;;;;;;10388205;28;20030;-56
2023/09/12 12:56:28;;;;;;;17.55;8.05;;;;;;;;;;10387469;28;20084;-48
2023/09/12 13:01:30;;;;;;;12.80;7.65;;;;;;;;;;10396550;28;20025;-48
2023/09/12 13:06:35;;;;;;;8.88;7.20;;;;;;;;;;10410028;28;20044;-55
2023/09/12 13:11:36;;;;;;;13.30;6.78;;;;;;;;;;10404378;28;20021;-49
2023/09/12 13:16:39;;;;;;;15.48;7.82;;;;;;;;;;10400671;28;20049;-58
2023/09/12 13:21:39;;;;;;;10.20;7.55;;;;;;;;;;10394829;28;20037;-49
2023/09/12 13:26:40;;;;;;;12.10;8.10;;;;;;;;;;10397288;28;20036;-58
2023/09/12 13:31:41;;;;;;;13.23;7.65;;;;;;;;;;10381823;28;20033;-51
2023/09/12 13:36:41;;;;;;;14.57;7.65;;;;;;;;;;10405589;28;20507;-52
2023/09/12 13:41:43;;;;;;;18.60;7.82;;;;;;;;;;10394859;28;20049;-53
2023/09/12 13:46:47;;;;;;;11.55;7.97;;;;;;;;;;10395112;28;20065;-48
2023/09/12 13:51:47;;;;;;;14.63;7.20;;;;;;;;;;10380030;28;20034;-49
2023/09/12 13:56:48;;;;;;;12.80;7.55;;;;;;;;;;10393851;28;20033;-49
2023/09/12 14:01:48;;;;;;;12.43;7.50;;;;;;;;;;10398805;28;20026;-52
2023/09/12 14:06:49;;;;;;;9.07;7.65;;;;;;;;;;10389867;28;20034;-49
2023/09/12 14:11:50;;;;;;;10.90;7.20;;;;;;;;;;10404717;28;20034;-48
2023/09/12 14:16:50;;;;;;;15.07;7.32;;;;;;;;;;10404020;28;20032;-51
2023/09/12 14:21:51;;;;;;;14.40;6.75;;;;;;;;;;10405076;28;20041;-48
2023/09/12 14:26:51;;;;;;;11.07;7.03;;;;;;;;;;10387695;28;20026;-50
2023/09/12 14:31:57;;;;;;;9.07;7.30;;;;;;;;;;10385203;28;20041;-49
2023/09/12 14:36:58;;;;;;;9.73;7.38;;;;;;;;;;10374608;28;20084;-54
2023/09/12 14:41:59;;;;;;;10.15;7.38;;;;;;;;;;10394874;28;20079;-58
2023/09/12 14:47:00;;;;;;;14.65;7.63;;;;;;;;;;10387638;28;20061;-54
2023/09/12 14:52:00;;;;;;;11.43;7.30;;;;;;;;;;10379811;28;20385;-50
2023/09/12 14:57:01;;;;;;;12.23;7.60;;;;;;;;;;10391965;28;21637;-49
2023/09/12 15:02:01;;;;;;;10.57;7.28;;;;;;;;;;10367883;28;20425;-48
2023/09/12 15:07:02;;;;;;;13.40;7.63;;;;;;;;;;10372499;28;20038;-48
2023/09/12 15:12:03;;;;;;;11.63;7.93;;;;;;;;;;10383727;28;20108;-49
2023/09/12 15:17:03;;;;;;;11.77;7.68;;;;;;;;;;10386427;28;20022;-59
2023/09/12 15:22:04;;;;;;;10.55;7.30;;;;;;;;;;10410205;28;20104;-56
2023/09/12 15:27:05;;;;;;;11.65;7.60;;;;;;;;;;10391367;28;20076;-56
2023/09/12 15:32:06;;;;;;;12.40;8.15;;;;;;;;;;10379571;28;20022;-56
2023/09/12 15:37:11;;;;;;;9.85;7.22;;;;;;;;;;10380181;28;20068;-49
2023/09/12 15:42:12;;;;;;;9.98;7.85;;;;;;;;;;10403227;28;20029;-49
2023/09/12 15:47:13;;;;;;;13.32;8.02;;;;;;;;;;10396523;28;20400;-49
2023/09/12 15:52:14;;;;;;;11.25;7.10;;;;;;;;;;10380033;28;20253;-48
2023/09/12 15:57:14;;;;;;;12.15;9.15;;;;;;;;;;10383421;28;20037;-48
2023/09/12 16:02:16;;;;;;;17.02;7.80;;;;;;;;;;10396452;28;20033;-48
2023/09/12 16:07:18;;;;;;;14.23;8.02;;;;;;;;;;10371734;28;20044;-48
2023/09/12 16:12:18;;;;;;;16.80;8.00;;;;;;;;;;10401614;28;20029;-48
2023/09/12 16:17:19;;;;;;;14.73;7.90;;;;;;;;;;10406271;28;20029;-49
2023/09/12 16:22:20;;;;;;;13.63;8.52;;;;;;;;;;10409033;28;20036;-48
2023/09/12 16:27:22;;;;;;;13.30;8.10;;;;;;;;;;10399346;28;20038;-49
2023/09/12 16:32:23;;;;;;;9.80;7.60;;;;;;;;;;10372646;28;20022;-49
2023/09/12 16:37:24;;;;;;;14.02;8.00;;;;;;;;;;10370327;28;20080;-49
2023/09/12 16:42:26;;;;;;;11.63;7.55;;;;;;;;;;10377371;28;20112;-48
2023/09/12 16:47:27;;;;;;;8.52;7.55;;;;;;;;;;10394141;28;20103;-48
2023/09/12 16:52:30;;;;;;;10.18;7.53;;;;;;;;;;10394500;28;20032;-49
2023/09/12 16:57:30;;;;;;;10.73;7.82;;;;;;;;;;10382489;28;20022;-49
2023/09/12 17:02:34;;;;;;;8.73;6.93;;;;;;;;;;10376860;28;20029;-49
2023/09/12 17:07:35;;;;;;;8.50;7.20;;;;;;;;;;10387761;28;20116;-49
2023/09/12 17:12:36;;;;;;;10.18;7.53;;;;;;;;;;10381412;28;20048;-49
2023/09/12 17:17:37;;;;;;;8.07;6.75;;;;;;;;;;10378243;28;20026;-49
2023/09/12 17:22:38;;;;;;;9.68;7.07;;;;;;;;;;10385684;28;20553;-48
2023/09/12 17:27:40;;;;;;;12.48;7.15;;;;;;;;;;10379689;28;20272;-49
2023/09/12 17:32:41;;;;;;;9.15;7.50;;;;;;;;;;10370079;28;20062;-57
2023/09/12 17:37:41;;;;;;;10.07;7.78;;;;;;;;;;10405270;28;20033;-49
2023/09/12 17:42:42;;;;;;;11.57;7.68;;;;;;;;;;10378829;28;20091;-48
2023/09/12 17:47:42;;;;;;;8.77;7.80;;;;;;;;;;10384415;28;20061;-48
2023/09/12 17:52:43;;;;;;;11.20;7.85;;;;;;;;;;10377940;28;20061;-48
2023/09/12 17:57:44;;;;;;;12.68;8.52;;;;;;;;;;10391776;28;20420;-48
2023/09/12 18:02:44;;;;;;;10.95;7.55;;;;;;;;;;10385971;28;20362;-48
2023/09/12 18:07:45;;;;;;;9.93;7.82;;;;;;;;;;10380419;28;20382;-49
2023/09/12 18:12:45;;;;;;;11.50;7.13;;;;;;;;;;10373590;28;20052;-49
2023/09/12 18:17:46;;;;;;;12.15;7.40;;;;;;;;;;10386277;28;20021;-48
2023/09/12 18:22:46;;;;;;;10.02;6.88;;;;;;;;;;10369310;28;20029;-48
2023/09/12 18:27:47;;;;;;;8.48;6.68;;;;;;;;;;10388193;28;20064;-51
2023/09/12 18:32:47;;;;;;;10.95;7.13;;;;;;;;;;10379889;28;20026;-50
2023/09/12 18:37:48;;;;;;;8.30;6.60;;;;;;;;;;10379451;28;20374;-50
2023/09/12 18:42:49;;;;;;;9.27;6.80;;;;;;;;;;10389656;28;20030;-49
2023/09/12 18:47:49;;;;;;;7.97;6.28;;;;;;;;;;10376728;28;20177;-48
2023/09/12 18:52:50;;;;;;;9.02;6.40;;;;;;;;;;10384461;28;20022;-52
2023/09/12 18:57:51;;;;;;;10.77;6.78;;;;;;;;;;10386820;28;20053;-48
2023/09/12 19:02:52;;;;;;;14.02;5.80;;;;;;;;;;10386109;28;20026;-48
2023/09/12 19:07:53;;;;;;;10.18;6.10;;;;;;;;;;10382458;28;20038;-50
2023/09/12 19:12:54;;;;;;;7.22;6.50;;;;;;;;;;10383339;28;20385;-48
2023/09/12 19:17:55;;;;;;;13.52;6.28;;;;;;;;;;10386042;28;20026;-48
2023/09/12 19:22:55;;;;;;;8.98;6.25;;;;;;;;;;10397896;28;20469;-48
2023/09/12 19:27:56;;;;;;;9.55;6.43;;;;;;;;;;10400154;28;20544;-49
2023/09/12 19:32:58;;;;;;;10.10;6.43;;;;;;;;;;10373599;28;20473;-49
2023/09/12 19:38:01;;;;;;;8.38;6.45;;;;;;;;;;10385826;28;20072;-55
2023/09/12 19:43:02;;;;;;;9.85;5.60;;;;;;;;;;10397608;28;20207;-49
2023/09/12 19:48:07;;;;;;;6.63;5.93;;;;;;;;;;10408074;28;20191;-48
2023/09/12 19:53:09;;;;;;;7.22;5.95;;;;;;;;;;10390834;28;20548;-48
2023/09/12 19:58:10;;;;;;;12.30;6.32;;;;;;;;;;10408915;28;20061;-50
2023/09/12 20:03:10;;;;;;;10.90;6.68;;;;;;;;;;10409030;28;20028;-48
2023/09/12 20:08:14;;;;;;;7.32;5.68;;;;;;;;;;10409309;28;20112;-48
2023/09/12 20:13:15;;;;;;;7.10;6.03;;;;;;;;;;10408631;28;20021;-49
2023/09/12 20:18:15;;;;;;;11.05;5.75;;;;;;;;;;10383595;28;20484;-49
2023/09/12 20:23:16;;;;;;;9.52;5.90;;;;;;;;;;10394133;28;20030;-49
2023/09/12 20:28:17;;;;;;;6.78;5.50;;;;;;;;;;10382176;28;20393;-49
2023/09/12 20:33:18;;;;;;;8.25;6.10;;;;;;;;;;10386750;28;20504;-49
2023/09/12 20:38:19;;;;;;;8.50;5.88;;;;;;;;;;10380052;28;20040;-49
2023/09/12 20:43:20;;;;;;;8.52;5.63;;;;;;;;;;10390288;28;20485;-49
2023/09/12 20:48:20;;;;;;;7.60;6.00;;;;;;;;;;10389922;28;20045;-50
2023/09/12 20:53:21;;;;;;;11.75;5.70;;;;;;;;;;10407540;28;20033;-49
2023/09/12 20:58:21;;;;;;;7.22;6.18;;;;;;;;;;10407548;28;20052;-50
2023/09/12 21:03:22;;;;;;;6.28;5.28;;;;;;;;;;10406589;28;20021;-50
2023/09/12 21:08:23;;;;;;;6.60;5.90;;;;;;;;;;10397810;28;20103;-48
2023/09/12 21:13:23;;;;;;;6.97;5.35;;;;;;;;;;10407005;28;20028;-49
2023/09/12 21:18:24;;;;;;;8.63;5.93;;;;;;;;;;10402353;28;20030;-53
2023/09/12 21:23:24;;;;;;;7.65;5.28;;;;;;;;;;10382102;28;20054;-49
2023/09/12 21:28:25;;;;;;;9.95;5.68;;;;;;;;;;10380982;28;20029;-50
2023/09/12 21:33:26;;;;;;;6.20;5.57;;;;;;;;;;10389816;28;20037;-49
2023/09/12 21:38:26;;;;;;;7.18;5.55;;;;;;;;;;10372033;28;20030;-55
2023/09/12 21:43:27;;;;;;;6.63;5.70;;;;;;;;;;10392026;28;20045;-49
2023/09/12 21:48:28;;;;;;;6.85;5.68;;;;;;;;;;10404707;28;20029;-50
2023/09/12 21:53:29;;;;;;;7.32;5.95;;;;;;;;;;10405769;28;20439;-49
2023/09/12 21:58:30;;;;;;;7.32;6.07;;;;;;;;;;10404713;28;20492;-49
2023/09/12 22:03:31;;;;;;;7.15;6.20;;;;;;;;;;10404150;28;20025;-50
2023/09/12 22:08:31;;;;;;;6.30;5.35;;;;;;;;;;10405761;28;20060;-51
2023/09/12 22:13:32;;;;;;;7.07;5.70;;;;;;;;;;10400834;28;20033;-49
2023/09/12 22:18:32;;;;;;;6.22;5.63;;;;;;;;;;10398834;28;20113;-50
2023/09/12 22:23:33;;;;;;;6.82;5.55;;;;;;;;;;10404069;28;20029;-49
2023/09/12 22:28:34;;;;;;;9.90;6.00;;;;;;;;;;10392115;28;20148;-51
2023/09/12 22:33:35;;;;;;;7.32;5.97;;;;;;;;;;10412040;28;20083;-50
2023/09/12 22:38:36;;;;;;;13.13;5.90;;;;;;;;;;10409859;28;20022;-56
2023/09/12 22:43:37;;;;;;;10.88;5.95;;;;;;;;;;10410633;28;20029;-51
2023/09/12 22:48:37;;;;;;;9.18;6.28;;;;;;;;;;10412989;28;20574;-48
2023/09/12 22:53:39;;;;;;;10.50;6.20;;;;;;;;;;10412103;28;20032;-49
2023/09/12 22:58:40;;;;;;;9.15;6.53;;;;;;;;;;10411586;28;20091;-48
2023/09/12 23:03:41;;;;;;;9.05;5.72;;;;;;;;;;10411319;28;20366;-49
2023/09/12 23:08:41;;;;;;;8.02;5.63;;;;;;;;;;10412068;28;20377;-49
2023/09/12 23:13:42;;;;;;;11.15;6.15;;;;;;;;;;10412504;28;20393;-50
2023/09/12 23:18:43;;;;;;;7.65;5.57;;;;;;;;;;10412089;28;20026;-49
2023/09/12 23:23:43;;;;;;;9.77;5.93;;;;;;;;;;10411273;28;20029;-49
2023/09/12 23:28:44;;;;;;;8.90;5.90;;;;;;;;;;10393597;28;20038;-49
2023/09/12 23:33:44;;;;;;;9.43;6.35;;;;;;;;;;10390900;28;20021;-49
2023/09/12 23:38:45;;;;;;;7.18;5.55;;;;;;;;;;10384997;28;20021;-50
2023/09/12 23:43:46;;;;;;;6.90;6.03;;;;;;;;;;10405020;28;20040;-50
2023/09/12 23:48:46;;;;;;;13.00;6.72;;;;;;;;;;10373502;28;20034;-49
2023/09/12 23:53:47;;;;;;;7.40;5.93;;;;;;;;;;10374000;28;20022;-49
2023/09/12 23:58:47;;;;;;;10.20;5.82;;;;;;;;;;10385444;28;20465;-49
